Time;durP1;ratioP1;P1;durP2;ratioP2;P2;SDS_P1;SDS_P2;PMS_P1;PMS_P2;Temp;Humidity;BMP_temperature;BMP_pressure;BME280_temperature;BME280_humidity;BME280_pressure;Samples;Min_cycle;Max_cycle;Signal;HPM_P1;HPM_P2
2022/10/05 00:03:43;;;;;;;10.70;8.93;;;12.90;99.90;;;;;;10419526;28;20228;-78
2022/10/05 00:08:46;;;;;;;9.73;8.67;;;12.80;99.90;;;;;;10422736;28;20241;-77
2022/10/05 00:13:48;;;;;;;9.53;8.67;;;12.80;99.90;;;;;;10417626;28;20205;-76
2022/10/05 00:18:53;;;;;;;8.60;7.80;;;12.80;99.90;;;;;;10416007;28;20248;-78
2022/10/05 00:23:57;;;;;;;8.20;7.23;;;12.80;99.90;;;;;;10416392;28;20741;-78
2022/10/05 00:29:01;;;;;;;8.93;8.13;;;12.70;99.90;;;;;;10416544;28;20212;-78
2022/10/05 00:34:06;;;;;;;10.03;9.30;;;12.70;99.90;;;;;;10413000;28;20225;-78
2022/10/05 00:39:08;;;;;;;10.07;9.37;;;12.70;99.90;;;;;;10423594;28;20296;-78
2022/10/05 00:44:32;;;;;;;9.63;8.67;;;12.70;99.90;;;;;;10425911;28;20201;-78
2022/10/05 00:49:51;;;;;;;9.27;8.57;;;12.70;99.90;;;;;;10426751;28;20213;-77
2022/10/05 00:55:03;;;;;;;8.70;8.10;;;12.70;99.90;;;;;;10425872;28;20198;-78
2022/10/05 01:00:08;;;;;;;11.40;10.37;;;12.70;99.90;;;;;;10423614;28;20256;-78
2022/10/05 01:05:19;;;;;;;9.77;8.80;;;12.70;99.90;;;;;;10421762;28;20710;-76
2022/10/05 01:10:29;;;;;;;10.73;9.83;;;12.70;99.90;;;;;;10391911;28;20288;-77
2022/10/05 01:15:35;;;;;;;9.60;8.80;;;12.70;99.90;;;;;;10427657;28;20222;-77
2022/10/05 01:20:51;;;;;;;9.37;8.60;;;12.70;99.90;;;;;;10427641;28;20407;-78
2022/10/05 01:26:06;;;;;;;7.47;7.00;;;12.70;99.90;;;;;;10424960;28;20276;-78
2022/10/05 01:31:17;;;;;;;9.60;8.80;;;12.70;99.90;;;;;;10417743;28;20208;-77
2022/10/05 01:36:26;;;;;;;9.60;8.67;;;12.70;99.90;;;;;;10417770;28;20202;-77
2022/10/05 01:41:37;;;;;;;8.67;8.07;;;12.70;99.90;;;;;;10418492;28;20228;-78
2022/10/05 01:46:47;;;;;;;12.13;9.63;;;12.60;99.90;;;;;;10420999;28;20216;-77
2022/10/05 01:51:59;;;;;;;10.93;10.13;;;12.60;99.90;;;;;;10424581;28;20281;-77
2022/10/05 01:57:20;;;;;;;11.50;10.43;;;12.60;99.90;;;;;;10417787;28;20226;-78
2022/10/05 02:02:25;;;;;;;10.70;9.80;;;12.50;99.90;;;;;;10419569;28;20210;-77
2022/10/05 02:07:34;;;;;;;13.97;11.10;;;12.50;99.90;;;;;;10420115;28;20228;-78
2022/10/05 02:12:38;;;;;;;14.20;12.80;;;12.40;99.90;;;;;;10420858;28;20202;-78
2022/10/05 02:17:48;;;;;;;19.70;14.17;;;12.30;99.90;;;;;;10419238;28;20218;-77
2022/10/05 02:22:53;;;;;;;10.63;9.80;;;12.30;99.90;;;;;;10419711;28;20222;-77
2022/10/05 02:27:59;;;;;;;10.70;9.80;;;12.30;99.90;;;;;;10418828;28;20222;-78
2022/10/05 02:33:10;;;;;;;11.67;10.50;;;12.20;99.90;;;;;;10419486;28;20194;-78
2022/10/05 02:38:19;;;;;;;10.63;9.73;;;12.10;99.90;;;;;;10419114;28;20225;-78
2022/10/05 02:43:28;;;;;;;11.40;10.57;;;12.10;99.90;;;;;;10421128;28;20679;-78
2022/10/05 02:48:42;;;;;;;12.20;10.93;;;12.10;99.90;;;;;;10405239;28;20329;-77
2022/10/05 02:53:56;;;;;;;11.53;10.63;;;12.10;99.90;;;;;;10421270;28;20288;-77
2022/10/05 02:59:05;;;;;;;13.40;10.93;;;12.00;99.90;;;;;;10418295;28;20600;-77
2022/10/05 03:04:20;;;;;;;12.93;11.87;;;12.00;99.90;;;;;;10415182;28;20204;-78
2022/10/05 03:09:26;;;;;;;10.97;10.10;;;12.00;99.90;;;;;;10415905;28;20214;-77
2022/10/05 03:14:38;;;;;;;14.10;13.10;;;12.00;99.90;;;;;;10415112;28;20677;-78
2022/10/05 03:19:58;;;;;;;15.10;14.00;;;12.10;99.90;;;;;;10416022;28;20233;-77
2022/10/05 03:25:24;;;;;;;11.63;10.53;;;12.10;99.90;;;;;;10416164;28;20685;-77
2022/10/05 03:30:32;;;;;;;13.27;12.20;;;12.10;99.90;;;;;;10417220;28;20210;-77
2022/10/05 03:35:46;;;;;;;13.10;12.20;;;12.10;99.90;;;;;;10410306;28;20202;-76
2022/10/05 03:40:54;;;;;;;12.63;11.53;;;12.10;99.90;;;;;;10409778;28;20786;-76
2022/10/05 03:46:03;;;;;;;18.27;14.97;;;12.10;99.90;;;;;;10410533;28;20194;-76
2022/10/05 03:51:15;;;;;;;13.37;12.27;;;12.00;99.90;;;;;;10409492;28;20297;-76
2022/10/05 03:56:28;;;;;;;12.90;12.00;;;12.10;99.90;;;;;;10392790;28;20232;-76
2022/10/05 04:01:43;;;;;;;15.43;13.97;;;12.10;99.90;;;;;;10387527;28;20214;-76
2022/10/05 04:06:48;;;;;;;13.40;12.47;;;12.10;99.90;;;;;;10408101;28;20210;-76
2022/10/05 04:11:56;;;;;;;13.07;12.00;;;12.00;99.90;;;;;;10413336;28;20198;-76
2022/10/05 04:17:02;;;;;;;14.33;12.90;;;12.00;99.90;;;;;;10412214;28;20698;-76
2022/10/05 04:22:12;;;;;;;13.17;12.17;;;12.00;99.90;;;;;;10416042;28;20271;-77
2022/10/05 04:27:18;;;;;;;12.63;11.57;;;12.00;99.90;;;;;;10416266;28;20221;-77
2022/10/05 04:32:37;;;;;;;14.90;13.70;;;12.10;99.90;;;;;;10415075;28;20194;-76
2022/10/05 04:37:52;;;;;;;14.00;12.80;;;12.10;99.90;;;;;;10417254;28;20220;-76
2022/10/05 04:43:04;;;;;;;16.97;15.67;;;12.10;99.90;;;;;;10399541;28;20267;-76
2022/10/05 04:48:38;;;;;;;14.10;13.00;;;12.20;99.90;;;;;;10415842;28;20245;-76
2022/10/05 04:53:51;;;;;;;14.87;13.67;;;12.20;99.90;;;;;;10414619;28;20532;-76
2022/10/05 04:59:06;;;;;;;15.97;14.60;;;12.20;99.90;;;;;;10415399;28;20583;-76
2022/10/05 05:04:25;;;;;;;15.07;13.97;;;12.30;99.90;;;;;;10415321;28;20197;-79
2022/10/05 05:09:53;;;;;;;14.33;13.23;;;12.30;99.90;;;;;;10400976;28;20582;-77
2022/10/05 05:15:11;;;;;;;16.73;15.33;;;12.30;99.90;;;;;;10421036;28;20202;-79
2022/10/05 05:20:22;;;;;;;23.30;21.13;;;12.30;99.90;;;;;;10421956;28;20205;-79
2022/10/05 05:25:38;;;;;;;35.87;32.57;;;12.30;99.90;;;;;;10422026;28;20277;-78
2022/10/05 05:30:45;;;;;;;35.23;32.03;;;12.30;99.90;;;;;;10423505;28;20214;-79
2022/10/05 05:36:26;;;;;;;33.00;29.77;;;12.20;99.90;;;;;;10424863;28;20289;-79
2022/10/05 05:41:37;;;;;;;25.67;23.27;;;12.20;99.90;;;;;;10425759;28;20213;-78
2022/10/05 05:46:44;;;;;;;21.70;19.90;;;12.20;99.90;;;;;;10429652;28;20218;-79
2022/10/05 05:51:52;;;;;;;21.47;19.57;;;12.20;99.90;;;;;;10418163;28;20610;-79
2022/10/05 05:57:06;;;;;;;21.80;19.80;;;12.20;99.90;;;;;;10418368;28;20249;-79
2022/10/05 06:02:12;;;;;;;25.93;23.23;;;12.20;99.90;;;;;;10418211;28;20224;-79
2022/10/05 06:07:19;;;;;;;17.00;15.40;;;12.20;99.90;;;;;;10421076;28;20222;-78
2022/10/05 06:12:27;;;;;;;22.13;16.90;;;12.20;99.90;;;;;;10422354;28;20197;-78
2022/10/05 06:17:38;;;;;;;21.80;19.70;;;12.20;99.90;;;;;;10411179;28;20217;-78
2022/10/05 06:22:45;;;;;;;18.97;17.17;;;12.20;99.90;;;;;;10421257;28;20313;-79
2022/10/05 06:28:09;;;;;;;21.70;19.70;;;12.20;99.90;;;;;;10403396;28;20229;-79
2022/10/05 06:33:27;;;;;;;26.00;16.53;;;12.20;99.90;;;;;;10420510;28;20230;-76
2022/10/05 06:38:53;;;;;;;16.97;15.10;;;12.20;99.90;;;;;;10424412;28;20561;-77
2022/10/05 06:44:00;;;;;;;17.53;15.73;;;12.30;99.90;;;;;;10420808;28;20226;-79
2022/10/05 06:49:20;;;;;;;18.43;16.83;;;12.30;99.90;;;;;;10419565;28;20297;-79
2022/10/05 06:54:43;;;;;;;18.90;17.30;;;12.30;99.90;;;;;;10418278;28;20713;-79
2022/10/05 06:59:55;;;;;;;16.40;14.80;;;12.30;99.90;;;;;;10416037;28;20221;-79
2022/10/05 07:05:27;;;;;;;16.40;15.10;;;12.40;99.90;;;;;;10418659;28;20198;-79
2022/10/05 07:10:36;;;;;;;18.43;16.87;;;12.40;99.90;;;;;;10419221;28;20242;-79
2022/10/05 07:15:55;;;;;;;17.23;15.93;;;12.40;99.90;;;;;;10418126;28;20202;-78
2022/10/05 07:21:03;;;;;;;16.97;15.67;;;12.50;99.90;;;;;;10424806;28;20273;-76
2022/10/05 07:26:09;;;;;;;18.03;16.47;;;12.50;99.90;;;;;;10425725;28;20228;-79
2022/10/05 07:31:20;;;;;;;16.60;15.40;;;12.60;99.90;;;;;;10416651;28;20229;-79
2022/10/05 07:42:04;;;;;;;18.40;16.90;;;12.70;99.90;;;;;;10358478;28;20234;-79
2022/10/05 07:47:13;;;;;;;17.20;15.80;;;12.80;99.90;;;;;;10405133;28;20213;-79
2022/10/05 07:52:23;;;;;;;14.47;13.27;;;12.80;99.90;;;;;;10425838;28;20273;-78
2022/10/05 07:57:37;;;;;;;16.73;15.27;;;12.90;99.90;;;;;;10408152;28;20218;-79
2022/10/05 08:02:49;;;;;;;16.30;15.10;;;13.00;99.90;;;;;;10410139;28;20214;-78
2022/10/05 08:07:56;;;;;;;17.50;15.80;;;13.10;99.90;;;;;;10431150;28;20614;-79
2022/10/05 08:13:07;;;;;;;16.23;14.90;;;13.10;99.90;;;;;;10425460;28;20190;-79
2022/10/05 08:18:19;;;;;;;15.53;14.30;;;13.20;99.90;;;;;;10408962;28;20233;-79
2022/10/05 08:23:25;;;;;;;14.60;13.10;;;13.30;99.90;;;;;;10426962;28;20271;-79
2022/10/05 08:28:33;;;;;;;15.90;14.30;;;13.30;99.90;;;;;;10434477;28;20218;-79
2022/10/05 08:33:48;;;;;;;14.33;12.87;;;13.40;99.90;;;;;;10424750;28;20200;-79
2022/10/05 08:38:55;;;;;;;13.90;12.80;;;13.50;99.90;;;;;;10426535;28;20245;-77
2022/10/05 08:44:33;;;;;;;13.97;12.97;;;13.60;99.90;;;;;;10432897;28;20225;-79
2022/10/05 08:50:01;;;;;;;15.13;13.83;;;13.60;99.90;;;;;;10398910;28;20325;-80
2022/10/05 08:55:29;;;;;;;14.17;13.00;;;13.70;99.90;;;;;;10426005;28;20276;-78
2022/10/05 09:00:39;;;;;;;16.80;15.07;;;13.80;99.90;;;;;;10425903;28;20640;-78
2022/10/05 09:06:18;;;;;;;19.40;17.70;;;13.90;99.90;;;;;;10422355;28;20198;-80
2022/10/05 09:11:25;;;;;;;17.27;15.77;;;13.90;99.90;;;;;;10423484;28;20192;-79
2022/10/05 09:16:47;;;;;;;17.17;15.77;;;14.00;99.90;;;;;;10415922;28;20189;-79
2022/10/05 09:21:58;;;;;;;14.53;13.43;;;14.10;99.90;;;;;;10414677;28;20292;-77
2022/10/05 09:27:10;;;;;;;15.27;13.97;;;14.30;99.90;;;;;;10414687;28;20256;-77
2022/10/05 09:32:45;;;;;;;14.00;12.90;;;14.40;99.90;;;;;;10414983;28;20194;-76
2022/10/05 09:38:22;;;;;;;15.03;13.67;;;14.60;99.90;;;;;;10414216;28;20210;-79
2022/10/05 09:43:52;;;;;;;15.40;14.10;;;14.80;99.90;;;;;;10413464;28;20214;-79
2022/10/05 09:49:38;;;;;;;12.20;11.00;;;14.90;99.90;;;;;;10409405;28;20237;-76
2022/10/05 09:55:30;;;;;;;13.20;12.10;;;15.00;99.90;;;;;;10366848;28;20225;-76
2022/10/05 10:00:48;;;;;;;12.43;11.40;;;15.10;99.90;;;;;;10310074;28;20226;-77
2022/10/05 10:06:17;;;;;;;26.67;21.17;;;15.10;99.90;;;;;;10372948;28;20193;-76
2022/10/05 10:11:38;;;;;;;15.30;13.70;;;15.10;99.90;;;;;;10405585;28;20630;-77
2022/10/05 10:17:02;;;;;;;13.50;12.10;;;15.20;99.90;;;;;;10412853;28;20220;-76
2022/10/05 10:22:27;;;;;;;11.73;10.83;;;15.20;99.90;;;;;;10411030;28;20232;-77
2022/10/05 10:27:57;;;;;;;12.97;11.83;;;15.20;99.90;;;;;;10411035;28;20682;-79
2022/10/05 10:33:17;;;;;;;10.83;10.03;;;15.30;99.90;;;;;;10412088;28;20828;-74
2022/10/05 10:38:40;;;;;;;11.10;10.10;;;15.40;99.90;;;;;;10412235;28;20867;-78
2022/10/05 10:44:03;;;;;;;9.07;8.37;;;15.50;99.90;;;;;;10412327;28;20776;-77
2022/10/05 10:49:33;;;;;;;7.50;7.00;;;15.50;99.90;;;;;;10417045;28;20218;-77
2022/10/05 10:55:16;;;;;;;7.97;7.43;;;15.50;99.90;;;;;;10419996;28;20240;-77
2022/10/05 11:00:32;;;;;;;7.20;6.80;;;15.60;99.90;;;;;;10377488;28;20224;-78
2022/10/05 11:06:17;;;;;;;7.30;6.80;;;15.70;99.90;;;;;;10415407;28;20197;-77
2022/10/05 11:11:44;;;;;;;7.03;6.53;;;15.80;99.90;;;;;;10413353;28;20196;-77
2022/10/05 11:17:38;;;;;;;7.37;6.33;;;16.00;99.90;;;;;;10386111;28;20336;-77
2022/10/05 11:22:57;;;;;;;6.13;5.73;;;16.20;99.90;;;;;;10322540;28;20293;-76
2022/10/05 11:28:22;;;;;;;8.30;7.70;;;16.30;99.90;;;;;;10391171;28;20214;-76
2022/10/05 11:34:07;;;;;;;7.73;7.03;;;16.50;99.90;;;;;;10407857;28;20610;-76
2022/10/05 11:39:35;;;;;;;6.40;5.93;;;16.60;99.90;;;;;;10405704;28;20233;-76
2022/10/05 11:45:14;;;;;;;6.47;6.07;;;16.70;99.90;;;;;;10407016;28;20229;-77
2022/10/05 11:50:21;;;;;;;6.10;4.10;;;16.80;99.90;;;;;;10403667;28;20229;-76
2022/10/05 11:55:29;;;;;;;5.60;5.20;;;16.90;99.90;;;;;;10408862;28;20197;-76
2022/10/05 12:00:39;;;;;;;5.97;5.37;;;17.10;99.90;;;;;;10415148;28;20607;-79
2022/10/05 12:05:56;;;;;;;6.37;5.87;;;17.30;99.90;;;;;;10418260;28;20200;-79
2022/10/05 12:11:08;;;;;;;5.30;5.00;;;17.60;99.90;;;;;;10416666;28;20209;-78
2022/10/05 12:16:18;;;;;;;5.63;5.23;;;17.70;99.90;;;;;;10416961;28;20186;-79
2022/10/05 12:21:36;;;;;;;6.00;5.60;;;17.80;99.90;;;;;;10416737;28;20564;-77
2022/10/05 12:26:47;;;;;;;4.93;4.60;;;17.90;99.90;;;;;;10377634;28;20294;-79
2022/10/05 12:31:56;;;;;;;5.53;5.13;;;18.00;99.90;;;;;;10421090;28;20189;-79
2022/10/05 12:37:03;;;;;;;5.53;5.13;;;18.10;99.90;;;;;;10425344;28;20224;-79
2022/10/05 12:42:17;;;;;;;6.00;5.53;;;18.10;99.90;;;;;;10425656;28;20649;-79
2022/10/05 12:47:27;;;;;;;5.20;4.90;;;18.10;99.90;;;;;;10433307;28;20241;-78
2022/10/05 12:52:58;;;;;;;4.13;3.93;;;18.10;99.90;;;;;;10425287;28;20205;-79
2022/10/05 12:58:15;;;;;;;7.90;7.33;;;18.30;99.90;;;;;;10427494;28;20304;-79
2022/10/05 13:03:24;;;;;;;5.83;5.43;;;18.50;99.90;;;;;;10424385;28;20244;-79
2022/10/05 13:08:35;;;;;;;5.20;4.90;;;18.50;99.90;;;;;;10426061;28;20216;-77
2022/10/05 13:13:49;;;;;;;5.03;4.30;;;18.60;99.90;;;;;;10414832;28;20615;-77
2022/10/05 13:19:01;;;;;;;5.47;5.17;;;18.50;99.90;;;;;;10414785;28;20272;-76
2022/10/05 13:24:12;;;;;;;6.60;5.30;;;18.40;99.90;;;;;;10414506;28;20309;-77
2022/10/05 13:29:25;;;;;;;4.70;4.50;;;18.40;99.90;;;;;;10412665;28;20213;-76
2022/10/05 13:34:34;;;;;;;4.97;4.67;;;18.40;99.90;;;;;;10396314;28;20205;-76
2022/10/05 13:39:54;;;;;;;4.40;4.20;;;18.40;99.90;;;;;;10413723;28;20685;-77
2022/10/05 13:45:02;;;;;;;4.47;4.27;;;18.40;99.90;;;;;;10389367;28;20210;-76
2022/10/05 13:50:14;;;;;;;4.53;4.40;;;18.50;99.90;;;;;;10414148;28;20225;-76
2022/10/05 13:55:29;;;;;;;4.40;4.20;;;18.60;99.90;;;;;;10413655;28;20677;-77
2022/10/05 14:00:40;;;;;;;4.77;4.47;;;18.70;99.90;;;;;;10411823;28;20615;-76
2022/10/05 14:05:55;;;;;;;6.20;5.90;;;18.80;99.90;;;;;;10411052;28;20774;-77
2022/10/05 14:11:20;;;;;;;2.80;2.70;;;18.90;99.90;;;;;;10410763;28;20245;-79
2022/10/05 14:16:25;;;;;;;4.00;3.90;;;19.10;99.90;;;;;;10395960;28;20202;-77
2022/10/05 14:21:31;;;;;;;4.70;4.50;;;19.10;99.90;;;;;;10411153;28;20237;-76
2022/10/05 14:26:35;;;;;;;4.40;4.20;;;19.00;99.90;;;;;;10408299;28;20198;-76
2022/10/05 14:31:49;;;;;;;5.10;4.70;;;18.90;99.90;;;;;;10412832;28;20189;-79
2022/10/05 14:36:56;;;;;;;4.30;3.90;;;18.90;99.90;;;;;;10418763;28;20282;-80
2022/10/05 14:42:12;;;;;;;3.93;3.73;;;18.80;99.90;;;;;;10416876;28;20252;-80
2022/10/05 14:47:21;;;;;;;4.87;4.57;;;18.70;99.90;;;;;;10416334;28;20253;-79
2022/10/05 14:52:31;;;;;;;4.70;4.50;;;18.60;99.90;;;;;;10419758;28;20217;-80
2022/10/05 14:57:42;;;;;;;5.93;5.53;;;18.50;99.90;;;;;;10381777;28;1066326;-80
2022/10/05 15:02:56;;;;;;;7.20;5.60;;;18.50;99.90;;;;;;10423077;28;20218;-77
2022/10/05 15:08:13;;;;;;;7.63;5.23;;;18.40;99.90;;;;;;10420617;28;20244;-77
2022/10/05 15:13:18;;;;;;;5.37;5.00;;;18.30;99.90;;;;;;10420710;28;20190;-79
2022/10/05 15:18:36;;;;;;;5.70;5.37;;;18.30;99.90;;;;;;10411799;28;20213;-76
2022/10/05 15:23:41;;;;;;;4.90;4.60;;;18.20;99.90;;;;;;10410619;28;20217;-76
2022/10/05 15:28:53;;;;;;;5.30;5.00;;;18.10;99.90;;;;;;10408820;28;20222;-76
2022/10/05 15:34:03;;;;;;;5.10;4.70;;;18.10;99.90;;;;;;10410501;28;20194;-77
2022/10/05 15:39:16;;;;;;;2.93;2.70;;;18.10;99.90;;;;;;10408675;28;20268;-80
2022/10/05 15:44:25;;;;;;;5.33;4.80;;;18.30;99.90;;;;;;10410782;28;20700;-77
2022/10/05 15:49:38;;;;;;;3.33;3.23;;;18.40;99.90;;;;;;10406689;28;20245;-79
2022/10/05 15:55:16;;;;;;;9.40;4.77;;;18.40;99.90;;;;;;10408585;28;20273;-75
2022/10/05 16:00:20;;;;;;;4.60;4.40;;;18.40;99.90;;;;;;10353283;28;20226;-76
2022/10/05 16:11:09;;;;;;;5.50;5.20;;;18.40;99.90;;;;;;10418502;28;20568;-76
2022/10/05 16:16:20;;;;;;;4.70;4.30;;;18.30;99.90;;;;;;10417855;28;20284;-76
2022/10/05 16:21:31;;;;;;;3.60;3.40;;;18.30;99.90;;;;;;10416568;28;20256;-77
2022/10/05 16:26:45;;;;;;;4.27;3.87;;;18.30;99.90;;;;;;10417533;28;20658;-76
2022/10/05 16:31:55;;;;;;;4.77;3.60;;;18.30;99.90;;;;;;10417584;28;20202;-77
2022/10/05 16:37:08;;;;;;;3.73;3.53;;;18.30;99.90;;;;;;10415954;28;20249;-75
2022/10/05 16:42:24;;;;;;;4.60;4.27;;;18.20;99.90;;;;;;10416706;28;20213;-76
2022/10/05 16:47:38;;;;;;;4.43;4.03;;;18.10;99.90;;;;;;10406289;28;20672;-84
2022/10/05 16:52:46;;;;;;;4.27;3.97;;;18.00;99.90;;;;;;10403142;28;20269;-79
2022/10/05 16:57:54;;;;;;;4.30;3.97;;;17.90;99.90;;;;;;10413438;28;20268;-77
2022/10/05 17:03:18;;;;;;;6.60;5.43;;;17.80;99.90;;;;;;10411660;28;20224;-76
2022/10/05 17:08:38;;;;;;;6.03;3.90;;;17.70;99.90;;;;;;10397158;28;20797;-76
2022/10/05 17:14:08;;;;;;;7.17;5.40;;;17.60;99.90;;;;;;10409723;28;20244;-76
2022/10/05 17:19:24;;;;;;;29.67;20.20;;;17.50;99.90;;;;;;10397782;28;20229;-76
2022/10/05 17:24:41;;;;;;;23.60;18.40;;;17.40;99.90;;;;;;10412812;28;20217;-77
2022/10/05 17:29:48;;;;;;;11.57;10.47;;;17.30;99.90;;;;;;10412092;28;20264;-77
2022/10/05 17:35:14;;;;;;;6.47;5.87;;;17.20;99.90;;;;;;10415571;28;20202;-77
2022/10/05 17:40:33;;;;;;;15.60;14.13;;;17.20;99.90;;;;;;10416566;28;20229;-77
2022/10/05 17:46:00;;;;;;;6.00;5.50;;;17.10;99.90;;;;;;10419282;28;20232;-80
2022/10/05 17:56:23;;;;;;;4.43;4.03;;;17.10;99.90;;;;;;10397348;28;20220;-79
2022/10/05 18:01:28;;;;;;;4.37;4.07;;;17.00;99.90;;;;;;10466623;22;20221;-82
2022/10/05 18:06:33;;;;;;;7.17;6.57;;;16.90;99.90;;;;;;10441000;28;20692;-85
2022/10/05 18:11:41;;;;;;;7.87;7.17;;;16.90;99.90;;;;;;10429295;28;20221;-82
2022/10/05 18:16:58;;;;;;;9.10;6.07;;;16.90;99.90;;;;;;10458365;28;20193;-83
2022/10/05 18:22:09;;;;;;;56.10;51.13;;;16.90;99.90;;;;;;10475483;28;20213;-83
2022/10/05 18:27:50;;;;;;;11.47;10.13;;;16.90;99.90;;;;;;10450966;28;20220;-84
2022/10/05 18:33:22;;;;;;;4.83;4.53;;;16.80;99.90;;;;;;10484139;28;20205;-80
2022/10/05 18:38:40;;;;;;;3.90;3.70;;;16.90;99.90;;;;;;10432669;28;20698;-80
2022/10/05 18:43:52;;;;;;;3.87;3.57;;;16.90;99.90;;;;;;10419217;28;20624;-80
2022/10/05 18:49:06;;;;;;;4.60;3.10;;;16.90;99.90;;;;;;10433069;28;20218;-80
2022/10/05 18:54:27;;;;;;;4.43;3.33;;;16.90;99.90;;;;;;10450616;28;20198;-84
2022/10/05 18:59:42;;;;;;;3.90;3.67;;;16.90;99.90;;;;;;10467069;28;20240;-79
2022/10/05 19:04:58;;;;;;;4.57;3.73;;;17.00;99.90;;;;;;10446187;28;20213;-79
2022/10/05 19:10:13;;;;;;;3.70;3.40;;;17.00;99.90;;;;;;10466542;28;20224;-80
2022/10/05 19:15:24;;;;;;;4.63;4.33;;;17.00;99.90;;;;;;10464958;28;20205;-80
2022/10/05 19:20:34;;;;;;;3.20;3.10;;;17.00;99.90;;;;;;10462211;28;20221;-81
2022/10/05 19:25:39;;;;;;;4.70;4.40;;;17.10;99.90;;;;;;10457718;28;20307;-80
2022/10/05 19:30:57;;;;;;;3.80;3.50;;;17.10;99.90;;;;;;10447861;28;20216;-82
2022/10/05 19:36:16;;;;;;;4.03;3.83;;;17.20;99.90;;;;;;10459556;28;20193;-81
2022/10/05 19:41:25;;;;;;;4.30;3.97;;;17.10;99.90;;;;;;10468349;28;20236;-82
2022/10/05 19:46:41;;;;;;;7.20;4.60;;;17.00;99.90;;;;;;10490823;28;20228;-82
2022/10/05 19:51:49;;;;;;;6.20;4.93;;;17.00;99.90;;;;;;10455984;28;20196;-80
2022/10/05 19:56:53;;;;;;;3.60;3.50;;;16.90;99.90;;;;;;10490226;28;20192;-83
2022/10/05 20:01:58;;;;;;;4.20;3.60;;;16.90;99.90;;;;;;10469736;28;20223;-81
2022/10/05 20:07:01;;;;;;;4.53;4.23;;;16.80;99.90;;;;;;10443065;28;20229;-83
2022/10/05 20:12:04;;;;;;;4.40;4.03;;;16.80;99.90;;;;;;10441539;28;20205;-83
2022/10/05 20:22:46;;;;;;;6.20;4.50;;;16.60;99.90;;;;;;10464900;28;20217;-83
2022/10/05 20:27:50;;;;;;;5.90;4.00;;;16.50;99.90;;;;;;10483098;28;20221;-81
2022/10/05 20:32:56;;;;;;;5.97;4.03;;;16.50;99.90;;;;;;10449422;28;20201;-84
2022/10/05 20:37:59;;;;;;;6.97;4.40;;;16.40;99.90;;;;;;10459199;28;20247;-82
2022/10/05 20:43:01;;;;;;;3.90;3.70;;;16.40;99.90;;;;;;10441357;28;20296;-83
2022/10/05 20:48:05;;;;;;;4.60;4.17;;;16.30;99.90;;;;;;10441180;28;20361;-83
2022/10/05 20:53:07;;;;;;;4.70;4.23;;;16.20;99.90;;;;;;10436178;28;20727;-83
2022/10/05 20:58:09;;;;;;;5.13;3.93;;;16.20;99.90;;;;;;10445291;28;20252;-83
2022/10/05 21:03:13;;;;;;;4.63;4.20;;;16.20;99.90;;;;;;10421893;28;20224;-81
2022/10/05 21:08:16;;;;;;;6.70;6.10;;;16.10;99.90;;;;;;10413307;28;20221;-81
2022/10/05 21:13:18;;;;;;;5.93;5.20;;;16.00;99.90;;;;;;10434024;28;20220;-81
2022/10/05 21:18:22;;;;;;;6.60;6.00;;;16.00;99.90;;;;;;10411959;28;20312;-82
2022/10/05 21:23:24;;;;;;;4.83;4.53;;;16.00;99.90;;;;;;10427938;28;20654;-82
2022/10/05 21:28:27;;;;;;;8.10;5.83;;;15.90;99.90;;;;;;10427992;28;20225;-81
2022/10/05 21:33:30;;;;;;;4.83;4.43;;;15.90;99.90;;;;;;10444314;28;20205;-82
2022/10/05 21:38:32;;;;;;;8.57;6.20;;;15.90;99.90;;;;;;10426230;28;20232;-81
2022/10/05 21:43:34;;;;;;;5.00;4.63;;;15.80;99.90;;;;;;10423312;28;20217;-83
2022/10/05 21:48:39;;;;;;;4.20;3.80;;;15.80;99.90;;;;;;10443896;28;20217;-83
2022/10/05 21:53:43;;;;;;;4.67;4.27;;;15.80;99.90;;;;;;10440686;28;20510;-82
2022/10/05 21:58:47;;;;;;;4.77;4.40;;;15.80;99.90;;;;;;10405942;28;20363;-83
2022/10/05 22:03:50;;;;;;;6.97;6.27;;;15.70;99.90;;;;;;10438891;28;20201;-83
2022/10/05 22:08:52;;;;;;;7.23;3.93;;;15.70;99.90;;;;;;10414864;28;20218;-81
2022/10/05 22:14:00;;;;;;;5.80;5.20;;;15.70;99.90;;;;;;10415357;28;20640;-81
2022/10/05 22:19:06;;;;;;;5.40;4.83;;;15.70;99.90;;;;;;10444323;28;20624;-81
2022/10/05 22:24:10;;;;;;;6.20;4.50;;;15.70;99.90;;;;;;10427360;28;20212;-81
2022/10/05 22:29:12;;;;;;;8.70;4.50;;;15.70;99.90;;;;;;10439763;28;20762;-81
2022/10/05 22:34:17;;;;;;;6.23;4.33;;;15.70;99.90;;;;;;10436499;28;20680;-81
2022/10/05 22:39:20;;;;;;;4.83;4.60;;;15.70;99.90;;;;;;10402396;28;20221;-81
2022/10/05 22:44:22;;;;;;;7.53;4.57;;;15.70;99.90;;;;;;10429244;28;20213;-81
2022/10/05 22:49:25;;;;;;;6.70;4.27;;;15.60;99.90;;;;;;10425059;28;20267;-81
2022/10/05 22:54:27;;;;;;;6.83;5.23;;;15.60;99.90;;;;;;10441263;28;20199;-83
2022/10/05 22:59:30;;;;;;;5.40;5.00;;;15.60;99.90;;;;;;10430064;28;20229;-81
2022/10/05 23:04:33;;;;;;;6.83;5.00;;;15.50;99.90;;;;;;10420608;28;20217;-81
2022/10/05 23:09:35;;;;;;;4.20;3.90;;;15.50;99.90;;;;;;10420473;28;20271;-81
2022/10/05 23:14:37;;;;;;;5.27;4.83;;;15.50;99.90;;;;;;10422851;28;20603;-81
2022/10/05 23:19:41;;;;;;;8.07;6.77;;;15.50;99.90;;;;;;10447169;28;20550;-81
2022/10/05 23:24:43;;;;;;;21.27;9.07;;;15.50;99.90;;;;;;10444361;28;20264;-81
2022/10/05 23:29:45;;;;;;;18.93;8.70;;;15.40;99.90;;;;;;10447418;28;20222;-81
2022/10/05 23:34:48;;;;;;;14.53;7.00;;;15.40;99.90;;;;;;10421534;28;20244;-81
2022/10/05 23:39:50;;;;;;;5.10;4.70;;;15.40;99.90;;;;;;10415107;28;20244;-81
2022/10/05 23:44:53;;;;;;;5.27;4.77;;;15.40;99.90;;;;;;10409209;28;20301;-81
2022/10/05 23:49:56;;;;;;;5.10;4.80;;;15.30;99.90;;;;;;10414132;28;20271;-83
2022/10/05 23:54:58;;;;;;;5.10;4.70;;;15.30;99.90;;;;;;10431396;28;20192;-83
